McCaulley, Texas
Current Conditions -  °F | °C
As of 6:35 PM on Sunday 21 Dec 2014 (Local Time) from KSWW Reporting Station
Clear Clear  
Wind Chill: 16°   Ceiling: Unl
Heat Index: 16°   Visibility: 10mi
Dew Point: -2°   Wind: 13mph
Humidity: 28%   Direction: 210°SSW
Pressure: 29.74"   Gusts: 17mph
Location:  32.78°N, 100.21°W
Report Text: KSWW 220035Z AUTO 21011G15KT 10SM CLR 16/M02 A2974 RMK AO2 T01621022
Loading
Personal Weather Stations






























Interactive Weather Map New forecast layout! Learn more

10-Day Weather Forecast

Advertisements
Track Severe Weather on mobile